Time;durP1;ratioP1;P1;durP2;ratioP2;P2;SDS_P1;SDS_P2;PMS_P1;PMS_P2;Temp;Humidity;BMP_temperature;BMP_pressure;BME280_temperature;BME280_humidity;BME280_pressure;Samples;Min_cycle;Max_cycle;Signal;HPM_P1;HPM_P2
2022/09/23 00:00:33;;;;;;;1.58;1.17;;;;;;;;;;7391262;19;20027;-72
2022/09/23 00:02:59;;;;;;;1.75;1.17;;;;;;;;;;7389142;19;20015;-72
2022/09/23 00:05:25;;;;;;;1.73;1.20;;;;;;;;;;7390175;19;20014;-72
2022/09/23 00:07:51;;;;;;;1.55;1.15;;;;;;;;;;7392948;19;20009;-72
2022/09/23 00:10:16;;;;;;;2.22;1.50;;;;;;;;;;7393094;19;19995;-72
2022/09/23 00:12:42;;;;;;;2.17;1.15;;;;;;;;;;7386460;19;20340;-72
2022/09/23 00:15:08;;;;;;;2.63;1.42;;;;;;;;;;7391693;19;20010;-72
2022/09/23 00:17:33;;;;;;;2.85;1.50;;;;;;;;;;7390838;19;20435;-72
2022/09/23 00:19:59;;;;;;;1.20;1.10;;;;;;;;;;7391847;19;20003;-72
2022/09/23 00:22:24;;;;;;;2.97;1.90;;;;;;;;;;7387157;19;20340;-72
2022/09/23 00:24:49;;;;;;;2.42;1.80;;;;;;;;;;7383469;19;20447;-72
2022/09/23 00:27:15;;;;;;;2.53;1.40;;;;;;;;;;7388075;19;20014;-72
2022/09/23 00:29:40;;;;;;;2.00;1.35;;;;;;;;;;7386121;19;20006;-71
2022/09/23 00:32:06;;;;;;;1.45;1.20;;;;;;;;;;7384358;19;20011;-72
2022/09/23 00:34:31;;;;;;;2.70;1.40;;;;;;;;;;7392892;19;20428;-72
2022/09/23 00:36:56;;;;;;;2.75;1.35;;;;;;;;;;7391019;19;20086;-72
2022/09/23 00:39:23;;;;;;;3.42;1.20;;;;;;;;;;7392344;19;20007;-72
2022/09/23 00:41:49;;;;;;;1.30;1.20;;;;;;;;;;7387868;19;20374;-72
2022/09/23 00:44:52;;;;;;;1.27;0.90;;;;;;;;;;7387815;19;20010;-72
2022/09/23 00:47:28;;;;;;;1.65;1.25;;;;;;;;;;7390399;19;20039;-72
2022/09/23 00:50:23;;;;;;;1.77;1.50;;;;;;;;;;7390827;19;20033;-72
2022/09/23 00:52:50;;;;;;;2.05;1.17;;;;;;;;;;7389468;19;20023;-72
2022/09/23 00:55:38;;;;;;;2.17;1.35;;;;;;;;;;7389533;19;20106;-71
2022/09/23 00:58:09;;;;;;;3.67;0.95;;;;;;;;;;7388317;19;20006;-72
2022/09/23 01:00:35;;;;;;;6.53;1.60;;;;;;;;;;7387372;19;20084;-72
2022/09/23 01:03:03;;;;;;;1.40;1.15;;;;;;;;;;7385417;19;20015;-72
2022/09/23 01:05:29;;;;;;;2.35;1.10;;;;;;;;;;7391906;19;20347;-71
2022/09/23 01:07:56;;;;;;;1.48;1.05;;;;;;;;;;7389705;19;20021;-72
2022/09/23 01:10:23;;;;;;;1.95;1.38;;;;;;;;;;7391732;19;20513;-72
2022/09/23 01:13:25;;;;;;;1.83;1.27;;;;;;;;;;7388357;19;20039;-71
2022/09/23 01:16:03;;;;;;;1.25;1.08;;;;;;;;;;7379694;19;20003;-72
2022/09/23 01:18:47;;;;;;;1.85;0.88;;;;;;;;;;7386644;19;21657;-71
2022/09/23 01:21:37;;;;;;;2.03;1.17;;;;;;;;;;7390238;19;20066;-72
2022/09/23 01:24:08;;;;;;;2.08;1.00;;;;;;;;;;7387482;19;19999;-74
2022/09/23 01:26:55;;;;;;;0.88;0.80;;;;;;;;;;7383467;19;20339;-72
2022/09/23 01:29:48;;;;;;;1.77;0.80;;;;;;;;;;7389031;19;20335;-72
2022/09/23 01:32:13;;;;;;;1.98;1.27;;;;;;;;;;7384159;19;20015;-72
2022/09/23 01:35:03;;;;;;;1.30;0.90;;;;;;;;;;7389374;19;20002;-72
2022/09/23 01:37:49;;;;;;;1.55;0.88;;;;;;;;;;7383859;19;20015;-71
2022/09/23 01:40:58;;;;;;;1.02;0.93;;;;;;;;;;7382094;19;20047;-72
2022/09/23 01:43:39;;;;;;;1.05;0.93;;;;;;;;;;7384599;19;20022;-72
2022/09/23 01:46:13;;;;;;;2.25;0.95;;;;;;;;;;7387606;19;20074;-72
2022/09/23 01:48:50;;;;;;;0.80;0.80;;;;;;;;;;7389230;19;20029;-72
2022/09/23 01:51:23;;;;;;;1.30;1.20;;;;;;;;;;7376640;19;20046;-72
2022/09/23 01:53:56;;;;;;;0.82;0.68;;;;;;;;;;7380599;19;20074;-76
2022/09/23 01:56:35;;;;;;;1.17;0.93;;;;;;;;;;7384116;19;20013;-76
2022/09/23 01:59:10;;;;;;;1.23;0.93;;;;;;;;;;7384559;19;20015;-76
2022/09/23 02:01:52;;;;;;;1.00;0.88;;;;;;;;;;7387143;19;20015;-76
2022/09/23 02:04:29;;;;;;;1.15;1.00;;;;;;;;;;7388550;19;20013;-76
2022/09/23 02:06:59;;;;;;;1.08;0.82;;;;;;;;;;7389480;19;20029;-77
2022/09/23 02:09:30;;;;;;;0.63;0.63;;;;;;;;;;7389559;19;20037;-76
2022/09/23 02:12:04;;;;;;;1.33;1.10;;;;;;;;;;7389011;19;20007;-76
2022/09/23 02:14:57;;;;;;;1.08;0.98;;;;;;;;;;7396477;19;20486;-76
2022/09/23 02:17:54;;;;;;;0.75;0.70;;;;;;;;;;7394570;19;19999;-76
2022/09/23 02:20:29;;;;;;;1.17;0.80;;;;;;;;;;7398038;19;20022;-76
2022/09/23 02:23:05;;;;;;;1.42;0.88;;;;;;;;;;7397437;19;19997;-76
2022/09/23 02:25:38;;;;;;;3.03;0.90;;;;;;;;;;7394340;19;20014;-76
2022/09/23 02:28:24;;;;;;;1.85;1.13;;;;;;;;;;7393486;19;20036;-77
2022/09/23 02:31:07;;;;;;;1.13;1.00;;;;;;;;;;7396131;19;20011;-77
2022/09/23 02:34:07;;;;;;;1.80;0.95;;;;;;;;;;7393799;19;20018;-76
2022/09/23 02:37:11;;;;;;;1.00;0.90;;;;;;;;;;7394206;19;20011;-77
2022/09/23 02:40:10;;;;;;;0.47;0.47;;;;;;;;;;7393793;19;20483;-77
2022/09/23 02:43:10;;;;;;;2.83;1.15;;;;;;;;;;7396534;19;20007;-77
2022/09/23 02:45:37;;;;;;;2.05;0.95;;;;;;;;;;7395151;19;20018;-77
2022/09/23 02:48:09;;;;;;;1.88;0.82;;;;;;;;;;7395450;19;20003;-77
2022/09/23 02:50:36;;;;;;;1.83;1.10;;;;;;;;;;7395922;19;20123;-76
2022/09/23 02:53:01;;;;;;;2.25;0.80;;;;;;;;;;7392103;19;20014;-77
2022/09/23 02:55:32;;;;;;;1.45;1.10;;;;;;;;;;7392128;19;20002;-77
2022/09/23 02:58:02;;;;;;;1.85;0.93;;;;;;;;;;7395747;19;20014;-77
2022/09/23 03:00:41;;;;;;;1.17;1.08;;;;;;;;;;7393931;19;20006;-77
2022/09/23 03:03:17;;;;;;;1.30;0.93;;;;;;;;;;7395212;19;20037;-77
2022/09/23 03:05:52;;;;;;;1.05;0.95;;;;;;;;;;7391809;19;20602;-77
2022/09/23 03:08:52;;;;;;;0.68;0.68;;;;;;;;;;7393247;19;19998;-77
2022/09/23 03:11:20;;;;;;;4.00;1.27;;;;;;;;;;7395987;19;20363;-77
2022/09/23 03:14:16;;;;;;;1.40;0.98;;;;;;;;;;7394212;19;20023;-77
2022/09/23 03:16:51;;;;;;;0.98;0.85;;;;;;;;;;7388231;19;20011;-76
2022/09/23 03:19:22;;;;;;;1.05;0.68;;;;;;;;;;7388900;19;20018;-77
2022/09/23 03:22:01;;;;;;;0.95;0.65;;;;;;;;;;7392063;19;20357;-77
2022/09/23 03:24:31;;;;;;;1.42;1.20;;;;;;;;;;7389455;19;20026;-77
2022/09/23 03:27:01;;;;;;;1.08;0.80;;;;;;;;;;7393427;19;20487;-77
2022/09/23 03:29:27;;;;;;;0.82;0.80;;;;;;;;;;7388750;19;20066;-77
2022/09/23 03:31:54;;;;;;;2.45;0.60;;;;;;;;;;7386841;19;20002;-77
2022/09/23 03:34:25;;;;;;;1.13;0.88;;;;;;;;;;7384900;19;20062;-77
2022/09/23 03:37:06;;;;;;;1.05;0.93;;;;;;;;;;7394237;19;20027;-77
2022/09/23 03:40:22;;;;;;;3.63;1.10;;;;;;;;;;7392700;19;20014;-76
2022/09/23 03:42:47;;;;;;;1.77;1.05;;;;;;;;;;7389552;19;20431;-76
2022/09/23 03:45:17;;;;;;;2.17;1.10;;;;;;;;;;7391971;19;20036;-76
2022/09/23 03:47:43;;;;;;;1.30;0.73;;;;;;;;;;7391150;19;20014;-77
2022/09/23 03:50:09;;;;;;;1.08;0.90;;;;;;;;;;7391298;19;19999;-75
2022/09/23 03:52:35;;;;;;;2.67;1.60;;;;;;;;;;7389759;19;20027;-75
2022/09/23 03:55:01;;;;;;;1.58;1.05;;;;;;;;;;7389456;19;20022;-75
2022/09/23 03:57:26;;;;;;;4.28;1.42;;;;;;;;;;7386861;19;20030;-75
2022/09/23 03:59:52;;;;;;;2.45;1.08;;;;;;;;;;7381111;19;20008;-76
2022/09/23 04:02:18;;;;;;;1.58;1.05;;;;;;;;;;7390063;19;20028;-78
2022/09/23 04:04:44;;;;;;;3.20;1.00;;;;;;;;;;7383705;19;20014;-76
2022/09/23 04:07:11;;;;;;;1.17;0.70;;;;;;;;;;7390581;19;19999;-76
2022/09/23 04:09:36;;;;;;;1.52;1.35;;;;;;;;;;7388290;19;20040;-76
2022/09/23 04:12:02;;;;;;;1.90;1.13;;;;;;;;;;7390579;19;20018;-76
2022/09/23 04:14:28;;;;;;;1.17;0.70;;;;;;;;;;7391928;19;20014;-76
2022/09/23 04:16:54;;;;;;;2.25;1.05;;;;;;;;;;7385188;19;20404;-76
2022/09/23 04:19:19;;;;;;;0.80;0.55;;;;;;;;;;7390180;19;20023;-76
2022/09/23 04:21:45;;;;;;;1.92;1.35;;;;;;;;;;7389029;19;20010;-76
2022/09/23 04:24:11;;;;;;;0.90;0.68;;;;;;;;;;7387068;19;20010;-76
2022/09/23 04:26:37;;;;;;;2.08;0.95;;;;;;;;;;7392059;19;20019;-76
2022/09/23 04:29:04;;;;;;;1.45;0.95;;;;;;;;;;7392566;19;20347;-76
2022/09/23 04:31:30;;;;;;;1.10;0.73;;;;;;;;;;7388943;19;20039;-76
2022/09/23 04:33:57;;;;;;;1.42;0.95;;;;;;;;;;7391090;19;20018;-76
2022/09/23 04:36:22;;;;;;;1.60;1.20;;;;;;;;;;7387180;19;20033;-74
2022/09/23 04:38:49;;;;;;;1.08;0.85;;;;;;;;;;7391688;19;20467;-76
2022/09/23 04:41:15;;;;;;;1.17;0.73;;;;;;;;;;7391470;19;20019;-76
2022/09/23 04:43:41;;;;;;;0.80;0.75;;;;;;;;;;7391364;19;20006;-75
2022/09/23 04:46:09;;;;;;;16.90;1.23;;;;;;;;;;7388665;19;20006;-75
2022/09/23 04:48:36;;;;;;;0.77;0.75;;;;;;;;;;7390854;19;20023;-75
2022/09/23 04:51:16;;;;;;;1.00;0.73;;;;;;;;;;7389801;19;20018;-75
2022/09/23 04:53:44;;;;;;;1.05;0.73;;;;;;;;;;7384493;19;20022;-76
2022/09/23 04:56:33;;;;;;;2.55;0.98;;;;;;;;;;7389300;19;20031;-76
2022/09/23 04:59:00;;;;;;;1.90;1.05;;;;;;;;;;7389660;19;20474;-75
2022/09/23 05:01:28;;;;;;;2.90;1.00;;;;;;;;;;7387213;19;20086;-76
2022/09/23 05:04:02;;;;;;;2.35;1.02;;;;;;;;;;7390327;19;20026;-75
2022/09/23 05:06:28;;;;;;;1.30;1.10;;;;;;;;;;7393082;19;20049;-75
2022/09/23 05:08:55;;;;;;;2.63;0.98;;;;;;;;;;7392468;19;20028;-75
2022/09/23 05:11:23;;;;;;;3.83;1.17;;;;;;;;;;7388228;19;20010;-75
2022/09/23 05:13:50;;;;;;;6.03;1.02;;;;;;;;;;7388047;19;20352;-76
2022/09/23 05:16:16;;;;;;;1.45;0.93;;;;;;;;;;7384089;19;20347;-76
2022/09/23 05:18:42;;;;;;;0.90;0.80;;;;;;;;;;7387072;19;20018;-75
2022/09/23 05:21:30;;;;;;;1.85;1.33;;;;;;;;;;7380307;19;20020;-76
2022/09/23 05:23:59;;;;;;;3.15;1.17;;;;;;;;;;7390619;19;20006;-76
2022/09/23 05:26:27;;;;;;;2.63;1.33;;;;;;;;;;7391136;19;20030;-76
2022/09/23 05:28:55;;;;;;;1.55;1.02;;;;;;;;;;7381098;19;20018;-77
2022/09/23 05:31:22;;;;;;;3.90;1.33;;;;;;;;;;7387869;19;20010;-75
2022/09/23 05:33:54;;;;;;;1.52;0.90;;;;;;;;;;7389424;19;20026;-76
2022/09/23 05:36:21;;;;;;;2.30;0.75;;;;;;;;;;7384862;19;20012;-77
2022/09/23 05:38:48;;;;;;;2.92;1.23;;;;;;;;;;7386745;19;20092;-75
2022/09/23 05:41:15;;;;;;;1.70;1.40;;;;;;;;;;7386214;19;20028;-76
2022/09/23 05:43:40;;;;;;;3.10;1.30;;;;;;;;;;7385211;19;20043;-77
2022/09/23 05:46:12;;;;;;;2.03;1.15;;;;;;;;;;7385371;19;20007;-75
2022/09/23 05:48:39;;;;;;;3.22;1.10;;;;;;;;;;7392641;19;20045;-75
2022/09/23 05:51:10;;;;;;;1.08;1.00;;;;;;;;;;7396917;19;20002;-75
2022/09/23 05:53:35;;;;;;;1.33;1.10;;;;;;;;;;7394766;19;20014;-76
2022/09/23 05:56:01;;;;;;;2.58;1.40;;;;;;;;;;7396593;19;20025;-75
2022/09/23 05:58:27;;;;;;;2.28;1.67;;;;;;;;;;7396364;19;20332;-75
2022/09/23 06:00:55;;;;;;;2.13;1.27;;;;;;;;;;7392746;19;20010;-76
2022/09/23 06:03:21;;;;;;;1.23;1.10;;;;;;;;;;7385657;19;20011;-76
2022/09/23 06:05:47;;;;;;;2.20;1.33;;;;;;;;;;7395331;19;20092;-75
2022/09/23 06:08:13;;;;;;;1.60;1.30;;;;;;;;;;7392552;19;20018;-76
2022/09/23 06:10:43;;;;;;;4.50;1.52;;;;;;;;;;7393659;19;20019;-75
2022/09/23 06:13:09;;;;;;;2.78;1.20;;;;;;;;;;7393756;19;20010;-75
2022/09/23 06:15:35;;;;;;;1.83;1.23;;;;;;;;;;7393117;19;20016;-76
2022/09/23 06:18:01;;;;;;;1.50;1.15;;;;;;;;;;7388878;19;20023;-76
2022/09/23 06:20:27;;;;;;;3.58;1.20;;;;;;;;;;7389003;19;20003;-75
2022/09/23 06:22:53;;;;;;;2.28;1.20;;;;;;;;;;7396172;19;20010;-76
2022/09/23 06:25:19;;;;;;;1.13;1.02;;;;;;;;;;7391696;19;20077;-77
2022/09/23 06:27:55;;;;;;;1.30;1.20;;;;;;;;;;7392573;19;20370;-75
2022/09/23 06:30:22;;;;;;;1.33;1.15;;;;;;;;;;7392762;19;20035;-76
2022/09/23 06:32:50;;;;;;;0.95;0.93;;;;;;;;;;7387249;19;20010;-76
2022/09/23 06:35:17;;;;;;;1.60;1.40;;;;;;;;;;7393439;19;20018;-77
2022/09/23 06:37:43;;;;;;;2.22;1.70;;;;;;;;;;7393227;19;20353;-75
2022/09/23 06:40:09;;;;;;;4.25;2.60;;;;;;;;;;7391692;19;20031;-76
2022/09/23 06:42:34;;;;;;;1.92;1.70;;;;;;;;;;7393017;19;20010;-76
2022/09/23 06:45:00;;;;;;;4.28;1.95;;;;;;;;;;7392671;19;20108;-76
2022/09/23 06:47:27;;;;;;;3.25;1.85;;;;;;;;;;7392698;19;20110;-76
2022/09/23 06:49:53;;;;;;;2.03;1.73;;;;;;;;;;7393284;19;20345;-76
2022/09/23 06:52:19;;;;;;;3.03;2.03;;;;;;;;;;7395510;19;20007;-78
2022/09/23 06:54:48;;;;;;;2.53;1.75;;;;;;;;;;7390338;19;20013;-75
2022/09/23 06:57:13;;;;;;;2.88;1.92;;;;;;;;;;7391586;19;20039;-77
2022/09/23 06:59:39;;;;;;;4.75;3.05;;;;;;;;;;7388138;19;20364;-77
2022/09/23 07:02:05;;;;;;;4.30;2.30;;;;;;;;;;7392691;19;21212;-75
2022/09/23 07:04:30;;;;;;;3.78;2.55;;;;;;;;;;7394905;19;20002;-75
2022/09/23 07:06:56;;;;;;;3.90;2.40;;;;;;;;;;7393094;19;20619;-76
2022/09/23 07:09:21;;;;;;;4.22;2.60;;;;;;;;;;7394864;19;20285;-76
2022/09/23 07:11:47;;;;;;;6.47;2.40;;;;;;;;;;7391546;19;20021;-76
2022/09/23 07:14:18;;;;;;;3.50;2.33;;;;;;;;;;7382898;19;20041;-77
2022/09/23 07:16:43;;;;;;;3.85;2.60;;;;;;;;;;7391544;19;20126;-77
2022/09/23 07:19:09;;;;;;;4.45;2.72;;;;;;;;;;7390840;19;20014;-76
2022/09/23 07:21:35;;;;;;;5.65;2.75;;;;;;;;;;7388479;19;20006;-77
2022/09/23 07:24:01;;;;;;;3.58;2.42;;;;;;;;;;7395035;19;20031;-76
2022/09/23 07:26:28;;;;;;;7.70;2.92;;;;;;;;;;7391303;19;20010;-78
2022/09/23 07:28:55;;;;;;;5.32;3.30;;;;;;;;;;7393038;19;20010;-76
2022/09/23 07:31:21;;;;;;;4.70;3.40;;;;;;;;;;7386607;19;20467;-76
2022/09/23 07:33:47;;;;;;;5.38;2.90;;;;;;;;;;7394441;19;20025;-75
2022/09/23 07:36:17;;;;;;;3.40;2.70;;;;;;;;;;7393180;19;20006;-76
2022/09/23 07:38:43;;;;;;;3.60;2.92;;;;;;;;;;7394968;19;20489;-76
2022/09/23 07:41:12;;;;;;;3.28;2.50;;;;;;;;;;7392672;19;19998;-76
2022/09/23 07:43:38;;;;;;;3.97;2.72;;;;;;;;;;7392292;19;20010;-75
2022/09/23 07:46:07;;;;;;;5.03;2.92;;;;;;;;;;7392657;19;20023;-76
2022/09/23 07:48:34;;;;;;;4.70;3.20;;;;;;;;;;7391740;19;20027;-77
2022/09/23 07:51:12;;;;;;;3.88;2.63;;;;;;;;;;7394181;19;20006;-77
2022/09/23 07:53:37;;;;;;;3.63;2.80;;;;;;;;;;7393335;19;19998;-77
2022/09/23 07:56:06;;;;;;;4.03;2.95;;;;;;;;;;7391691;19;19995;-77
2022/09/23 07:58:32;;;;;;;4.07;3.00;;;;;;;;;;7396239;19;20122;-77
2022/09/23 08:01:03;;;;;;;4.13;2.30;;;;;;;;;;7391010;19;20002;-77
2022/09/23 08:03:29;;;;;;;4.45;2.78;;;;;;;;;;7394811;19;20011;-77
2022/09/23 08:06:04;;;;;;;3.28;2.63;;;;;;;;;;7391405;19;20010;-76
2022/09/23 08:08:29;;;;;;;;;;;;;;;;;;7388887;19;20010;-76
2022/09/23 08:11:03;;;;;;;4.07;2.90;;;;;;;;;;7393916;19;19925;-76
2022/09/23 08:13:29;;;;;;;3.85;2.80;;;;;;;;;;7391368;19;20010;-75
2022/09/23 08:15:55;;;;;;;3.85;2.45;;;;;;;;;;7392102;19;20027;-76
2022/09/23 08:18:20;;;;;;;4.18;2.20;;;;;;;;;;7394392;19;20033;-75
2022/09/23 08:20:46;;;;;;;4.05;2.80;;;;;;;;;;7393245;19;20062;-76
2022/09/23 08:23:13;;;;;;;4.15;2.83;;;;;;;;;;7394066;19;20007;-77
2022/09/23 08:25:39;;;;;;;3.47;2.53;;;;;;;;;;7389586;19;20014;-75
2022/09/23 08:28:05;;;;;;;2.97;2.20;;;;;;;;;;7394658;19;20297;-75
2022/09/23 08:30:30;;;;;;;2.42;2.05;;;;;;;;;;7393571;19;20049;-75
2022/09/23 08:32:55;;;;;;;3.67;2.50;;;;;;;;;;7392261;19;20031;-78
2022/09/23 08:35:21;;;;;;;2.97;2.33;;;;;;;;;;7392435;19;20019;-77
2022/09/23 08:37:46;;;;;;;5.22;2.58;;;;;;;;;;7393389;19;20031;-77
2022/09/23 08:42:44;;;;;;;3.55;2.47;;;;;;;;;;7385786;19;20014;-71
2022/09/23 08:45:40;;;;;;;3.78;2.65;;;;;;;;;;7387967;19;20735;-72
2022/09/23 08:48:15;;;;;;;3.25;2.65;;;;;;;;;;7392005;19;19990;-72
2022/09/23 08:50:44;;;;;;;6.18;2.60;;;;;;;;;;7388265;19;20423;-72
2022/09/23 08:53:27;;;;;;;2.25;1.88;;;;;;;;;;7385905;19;20009;-72
2022/09/23 08:55:56;;;;;;;3.97;2.13;;;;;;;;;;7392831;19;20010;-72
2022/09/23 08:58:37;;;;;;;5.32;2.00;;;;;;;;;;7390301;19;20025;-72
2022/09/23 09:01:21;;;;;;;2.67;1.80;;;;;;;;;;7392385;19;20016;-71
2022/09/23 09:03:55;;;;;;;1.88;1.60;;;;;;;;;;7389638;19;20021;-72
2022/09/23 09:06:29;;;;;;;6.45;2.08;;;;;;;;;;7389602;19;20147;-72
2022/09/23 09:08:59;;;;;;;2.08;1.75;;;;;;;;;;7388729;19;20099;-72
2022/09/23 09:11:32;;;;;;;2.35;1.50;;;;;;;;;;7385670;19;20002;-72
2022/09/23 09:14:21;;;;;;;2.90;1.70;;;;;;;;;;7388303;19;20094;-72
2022/09/23 09:17:16;;;;;;;1.88;1.63;;;;;;;;;;7393308;19;20437;-72
2022/09/23 09:20:05;;;;;;;1.70;1.60;;;;;;;;;;7386110;19;19995;-72
2022/09/23 09:23:05;;;;;;;2.47;1.95;;;;;;;;;;7388525;19;20012;-72
2022/09/23 09:25:52;;;;;;;2.30;1.80;;;;;;;;;;7404898;19;20080;-72
2022/09/23 09:28:26;;;;;;;3.30;1.98;;;;;;;;;;7402424;19;20455;-72
2022/09/23 09:30:56;;;;;;;2.13;1.80;;;;;;;;;;7404241;19;20070;-72
2022/09/23 09:33:31;;;;;;;2.30;1.85;;;;;;;;;;7403082;19;20019;-72
2022/09/23 09:36:29;;;;;;;2.33;1.63;;;;;;;;;;7402614;19;20007;-72
2022/09/23 09:38:55;;;;;;;2.45;1.83;;;;;;;;;;7402322;19;20002;-72
2022/09/23 09:41:23;;;;;;;2.95;2.00;;;;;;;;;;7401103;19;19999;-72
2022/09/23 09:43:56;;;;;;;4.10;2.05;;;;;;;;;;7402364;19;20026;-72
2022/09/23 09:46:24;;;;;;;2.63;1.60;;;;;;;;;;7404444;19;20373;-73
2022/09/23 09:49:10;;;;;;;2.22;1.80;;;;;;;;;;7402112;19;19995;-72
2022/09/23 09:51:36;;;;;;;2.00;1.77;;;;;;;;;;7404321;19;20010;-73
2022/09/23 09:54:38;;;;;;;1.83;1.73;;;;;;;;;;7400627;19;20002;-72
2022/09/23 09:57:05;;;;;;;1.70;1.60;;;;;;;;;;7398543;19;20466;-72
2022/09/23 09:59:31;;;;;;;2.63;1.77;;;;;;;;;;7400789;19;20002;-72
2022/09/23 10:02:24;;;;;;;2.08;1.50;;;;;;;;;;7402145;19;20037;-72
2022/09/23 10:05:09;;;;;;;3.35;1.73;;;;;;;;;;7404193;19;20074;-72
2022/09/23 10:07:34;;;;;;;4.43;2.08;;;;;;;;;;7404879;19;20019;-72
2022/09/23 10:10:23;;;;;;;2.47;1.75;;;;;;;;;;7403696;19;20341;-73
2022/09/23 10:12:51;;;;;;;1.58;1.38;;;;;;;;;;7401850;19;19998;-72
2022/09/23 10:15:30;;;;;;;1.92;1.60;;;;;;;;;;7401531;19;20026;-72
2022/09/23 10:17:55;;;;;;;2.22;1.48;;;;;;;;;;7403590;19;20039;-72
2022/09/23 10:20:21;;;;;;;1.25;1.10;;;;;;;;;;7400289;19;20092;-72
2022/09/23 10:22:46;;;;;;;1.33;1.23;;;;;;;;;;7401602;19;20028;-72
2022/09/23 10:25:19;;;;;;;3.53;1.80;;;;;;;;;;7403177;19;20027;-72
2022/09/23 10:27:44;;;;;;;1.70;1.58;;;;;;;;;;7405513;19;20364;-72
2022/09/23 10:30:23;;;;;;;2.67;1.60;;;;;;;;;;7397868;19;19994;-73
2022/09/23 10:32:50;;;;;;;2.13;1.65;;;;;;;;;;7400158;19;19999;-72
2022/09/23 10:35:20;;;;;;;2.20;1.50;;;;;;;;;;7396681;19;20362;-72
2022/09/23 10:37:52;;;;;;;2.15;1.33;;;;;;;;;;7398395;19;19998;-72
2022/09/23 10:49:39;;;;;;;1.50;1.33;;;;;;;;;;7393830;19;20020;-72
2022/09/23 10:52:30;;;;;;;3.75;1.73;;;;;;;;;;7394691;19;20050;-72
2022/09/23 10:55:35;;;;;;;5.30;2.00;;;;;;;;;;7393526;19;20011;-72
2022/09/23 10:58:03;;;;;;;4.00;1.52;;;;;;;;;;7395317;19;20006;-73
2022/09/23 11:00:50;;;;;;;3.40;1.77;;;;;;;;;;7394567;19;20002;-72
2022/09/23 11:03:49;;;;;;;2.00;1.63;;;;;;;;;;7393941;19;20002;-72
2022/09/23 11:06:41;;;;;;;4.38;1.60;;;;;;;;;;7388500;19;20583;-72
2022/09/23 11:09:40;;;;;;;3.05;1.92;;;;;;;;;;7393093;19;20011;-73
2022/09/23 11:12:15;;;;;;;2.92;1.77;;;;;;;;;;7391551;19;20010;-72
2022/09/23 11:14:50;;;;;;;2.93;1.87;;;;;;;;;;7395129;19;20003;-72
2022/09/23 11:17:39;;;;;;;2.55;1.73;;;;;;;;;;7395571;19;20086;-72
2022/09/23 11:20:17;;;;;;;3.00;1.80;;;;;;;;;;7393919;19;20045;-71
2022/09/23 11:23:10;;;;;;;2.75;1.65;;;;;;;;;;7394984;19;20087;-71
2022/09/23 11:25:57;;;;;;;1.70;1.60;;;;;;;;;;7394489;19;20135;-71
2022/09/23 11:29:01;;;;;;;1.67;1.42;;;;;;;;;;7394869;19;20018;-72
2022/09/23 11:31:53;;;;;;;6.50;1.50;;;;;;;;;;7390794;19;20387;-71
2022/09/23 11:34:19;;;;;;;1.27;1.17;;;;;;;;;;7388676;19;20441;-72
2022/09/23 11:36:56;;;;;;;1.70;1.30;;;;;;;;;;7394400;19;20011;-71
2022/09/23 11:39:41;;;;;;;1.60;1.40;;;;;;;;;;7389559;19;20010;-72
2022/09/23 11:42:16;;;;;;;1.20;1.10;;;;;;;;;;7386321;19;20086;-70
2022/09/23 11:44:47;;;;;;;3.30;1.23;;;;;;;;;;7380074;19;20010;-71
2022/09/23 11:47:20;;;;;;;1.60;1.25;;;;;;;;;;7392333;19;20130;-71
2022/09/23 11:49:56;;;;;;;1.80;1.30;;;;;;;;;;7391434;19;20006;-71
2022/09/23 11:52:26;;;;;;;1.63;1.25;;;;;;;;;;7386649;19;20011;-70
2022/09/23 11:54:58;;;;;;;1.77;1.27;;;;;;;;;;7393141;19;20017;-70
2022/09/23 11:57:39;;;;;;;2.53;1.55;;;;;;;;;;7394087;19;20022;-71
2022/09/23 12:00:16;;;;;;;1.90;1.40;;;;;;;;;;7390334;19;20004;-71
2022/09/23 12:03:22;;;;;;;3.35;1.50;;;;;;;;;;7391797;19;20015;-71
2022/09/23 12:06:01;;;;;;;1.52;1.42;;;;;;;;;;7390144;19;20018;-71
2022/09/23 12:08:29;;;;;;;1.67;1.48;;;;;;;;;;7394930;19;20008;-71
2022/09/23 12:10:57;;;;;;;2.88;1.23;;;;;;;;;;7392849;19;20010;-71
2022/09/23 12:13:41;;;;;;;1.50;1.30;;;;;;;;;;7393303;19;20019;-71
2022/09/23 12:16:15;;;;;;;4.70;1.50;;;;;;;;;;7394457;19;19999;-72
2022/09/23 12:18:58;;;;;;;3.50;1.13;;;;;;;;;;7393218;19;20029;-72
2022/09/23 12:21:36;;;;;;;2.15;1.10;;;;;;;;;;7386695;19;20011;-72
2022/09/23 12:24:33;;;;;;;2.20;1.20;;;;;;;;;;7392732;19;20014;-72
2022/09/23 12:27:04;;;;;;;2.15;1.33;;;;;;;;;;7392750;19;20006;-72
2022/09/23 12:29:31;;;;;;;1.50;1.13;;;;;;;;;;7391495;19;20046;-71
2022/09/23 12:31:57;;;;;;;1.33;1.23;;;;;;;;;;7390448;19;20451;-71
2022/09/23 12:34:47;;;;;;;2.15;1.10;;;;;;;;;;7391574;19;20010;-71
2022/09/23 12:37:26;;;;;;;1.95;1.27;;;;;;;;;;7393145;19;19991;-71
2022/09/23 12:39:53;;;;;;;3.22;1.30;;;;;;;;;;7389988;19;20078;-71
2022/09/23 12:42:20;;;;;;;1.20;1.10;;;;;;;;;;7388334;19;20470;-71
2022/09/23 12:44:47;;;;;;;1.30;1.20;;;;;;;;;;7389660;19;20466;-71
2022/09/23 12:47:24;;;;;;;2.13;1.20;;;;;;;;;;7390176;19;19999;-71
2022/09/23 12:50:00;;;;;;;1.67;1.30;;;;;;;;;;7388553;19;20330;-71
2022/09/23 12:52:31;;;;;;;4.93;1.48;;;;;;;;;;7391193;19;20336;-71
2022/09/23 12:55:17;;;;;;;1.15;1.02;;;;;;;;;;7388923;19;20070;-71
2022/09/23 12:57:43;;;;;;;1.48;0.98;;;;;;;;;;7388969;19;20018;-71
2022/09/23 13:00:25;;;;;;;0.88;0.88;;;;;;;;;;7388767;19;19995;-71
2022/09/23 13:08:44;;;;;;;1.40;1.10;;;;;;;;;;7393445;19;20449;-71
2022/09/23 13:11:29;;;;;;;2.50;1.48;;;;;;;;;;7385747;19;20559;-71
2022/09/23 13:13:59;;;;;;;1.63;1.30;;;;;;;;;;7392375;19;20102;-71
2022/09/23 13:16:33;;;;;;;3.60;1.77;;;;;;;;;;7388716;19;20032;-71
2022/09/23 13:19:25;;;;;;;1.90;1.10;;;;;;;;;;7388745;19;20027;-71
2022/09/23 13:22:08;;;;;;;1.65;1.38;;;;;;;;;;7388140;19;20006;-71
2022/09/23 13:24:38;;;;;;;2.10;1.10;;;;;;;;;;7389369;19;20331;-71
2022/09/23 13:27:25;;;;;;;1.55;1.45;;;;;;;;;;7386478;19;20107;-70
2022/09/23 13:29:56;;;;;;;1.48;1.08;;;;;;;;;;7388951;19;20018;-71
2022/09/23 13:32:28;;;;;;;1.40;1.30;;;;;;;;;;7388963;19;20018;-71
2022/09/23 13:34:59;;;;;;;1.42;1.27;;;;;;;;;;7390222;19;20027;-71
2022/09/23 13:37:30;;;;;;;2.13;1.40;;;;;;;;;;7390412;19;20010;-71
2022/09/23 13:40:09;;;;;;;2.60;1.50;;;;;;;;;;7389876;19;20002;-71
2022/09/23 13:42:39;;;;;;;1.73;1.10;;;;;;;;;;7387628;19;20032;-71
2022/09/23 13:45:12;;;;;;;2.95;1.17;;;;;;;;;;7389380;19;20022;-71
2022/09/23 13:47:40;;;;;;;2.03;1.02;;;;;;;;;;7389549;19;20009;-71
2022/09/23 13:50:16;;;;;;;2.70;1.40;;;;;;;;;;7391797;19;20011;-71
2022/09/23 13:52:42;;;;;;;1.30;1.20;;;;;;;;;;7389889;19;20023;-71
2022/09/23 13:55:24;;;;;;;1.85;1.30;;;;;;;;;;7390118;19;20444;-71
2022/09/23 13:58:01;;;;;;;2.03;1.20;;;;;;;;;;7392430;19;20458;-70
2022/09/23 14:00:34;;;;;;;1.48;1.38;;;;;;;;;;7389968;19;20007;-71
2022/09/23 14:02:59;;;;;;;1.77;1.20;;;;;;;;;;7389743;19;20010;-70
2022/09/23 14:05:28;;;;;;;0.73;0.73;;;;;;;;;;7387851;19;20336;-70
2022/09/23 14:07:55;;;;;;;3.95;1.23;;;;;;;;;;7384184;19;20011;-71
2022/09/23 14:10:22;;;;;;;1.58;1.05;;;;;;;;;;7392113;19;20018;-71
2022/09/23 14:12:49;;;;;;;1.23;1.05;;;;;;;;;;7394333;19;20006;-71
2022/09/23 14:15:17;;;;;;;2.50;1.50;;;;;;;;;;7397201;19;19995;-71
2022/09/23 14:17:47;;;;;;;1.70;1.33;;;;;;;;;;7398923;19;20013;-71
2022/09/23 14:20:14;;;;;;;3.80;1.42;;;;;;;;;;7394085;19;19999;-71
2022/09/23 14:22:40;;;;;;;1.30;1.20;;;;;;;;;;7396184;19;20013;-71
2022/09/23 14:25:13;;;;;;;3.47;1.30;;;;;;;;;;7393584;19;19991;-71
2022/09/23 14:27:40;;;;;;;2.17;1.58;;;;;;;;;;7393105;19;20010;-71
2022/09/23 14:30:19;;;;;;;2.15;1.63;;;;;;;;;;7397301;19;20115;-71
2022/09/23 14:32:46;;;;;;;2.30;1.95;;;;;;;;;;7397856;19;20289;-71
2022/09/23 14:35:15;;;;;;;1.58;1.45;;;;;;;;;;7395318;19;20405;-71
2022/09/23 14:40:33;;;;;;;1.55;1.20;;;;;;;;;;7396113;19;20017;-71
2022/09/23 14:43:17;;;;;;;1.60;1.45;;;;;;;;;;7392414;19;20002;-71
2022/09/23 14:45:46;;;;;;;1.65;1.35;;;;;;;;;;7397205;19;20047;-71
2022/09/23 14:48:17;;;;;;;1.90;1.45;;;;;;;;;;7391419;19;20011;-71
2022/09/23 14:50:50;;;;;;;1.80;1.40;;;;;;;;;;7394679;19;20007;-71
2022/09/23 14:53:21;;;;;;;2.38;1.38;;;;;;;;;;7391917;19;20393;-71
2022/09/23 14:55:51;;;;;;;2.00;1.27;;;;;;;;;;7391099;19;20376;-71
2022/09/23 14:58:19;;;;;;;2.63;1.70;;;;;;;;;;7394419;19;20021;-71
2022/09/23 15:01:00;;;;;;;3.63;1.38;;;;;;;;;;7392570;19;20400;-71
2022/09/23 15:03:30;;;;;;;1.88;1.27;;;;;;;;;;7395940;19;20014;-70
2022/09/23 15:06:04;;;;;;;2.35;1.20;;;;;;;;;;7395980;19;20013;-71
2022/09/23 15:08:31;;;;;;;2.08;1.50;;;;;;;;;;7395291;19;20029;-71
2022/09/23 15:10:57;;;;;;;1.65;1.38;;;;;;;;;;7391882;19;20032;-71
2022/09/23 15:13:27;;;;;;;3.85;1.70;;;;;;;;;;7394811;19;20015;-71
2022/09/23 15:15:54;;;;;;;2.75;1.30;;;;;;;;;;7392348;19;20006;-71
2022/09/23 15:18:26;;;;;;;3.10;1.60;;;;;;;;;;7392123;19;20023;-71
2022/09/23 15:20:59;;;;;;;3.65;1.60;;;;;;;;;;7392969;19;20019;-71
2022/09/23 15:23:33;;;;;;;1.67;1.50;;;;;;;;;;7394506;19;20069;-71
2022/09/23 15:26:04;;;;;;;2.65;1.70;;;;;;;;;;7394006;19;20022;-70
2022/09/23 15:28:29;;;;;;;1.30;1.20;;;;;;;;;;7396041;19;20029;-70
2022/09/23 15:30:55;;;;;;;2.25;1.13;;;;;;;;;;7390192;19;20010;-70
2022/09/23 15:33:26;;;;;;;2.78;1.45;;;;;;;;;;7393436;19;20007;-71
2022/09/23 15:35:53;;;;;;;2.90;1.00;;;;;;;;;;7396350;19;19998;-71
2022/09/23 15:38:19;;;;;;;4.57;1.40;;;;;;;;;;7394152;19;20014;-71